sensor_id;sensor_type;location;lat;lon;timestamp;temperature;humidity
5960;DHT22;3006;50.956;7.002;2022-10-31T00:00:47;15.00;99.90
5960;DHT22;3006;50.956;7.002;2022-10-31T00:03:17;15.00;99.90
5960;DHT22;3006;50.956;7.002;2022-10-31T00:05:47;15.10;99.90
5960;DHT22;3006;50.956;7.002;2022-10-31T00:08:16;15.00;99.90
5960;DHT22;3006;50.956;7.002;2022-10-31T00:10:45;15.00;99.90
5960;DHT22;3006;50.956;7.002;2022-10-31T00:13:14;15.00;99.90
5960;DHT22;3006;50.956;7.002;2022-10-31T00:15:42;14.90;99.90
5960;DHT22;3006;50.956;7.002;2022-10-31T00:18:11;15.00;99.90
5960;DHT22;3006;50.956;7.002;2022-10-31T00:20:40;14.90;99.90
5960;DHT22;3006;50.956;7.002;2022-10-31T00:23:10;14.80;99.90
5960;DHT22;3006;50.956;7.002;2022-10-31T00:25:39;14.70;99.90
5960;DHT22;3006;50.956;7.002;2022-10-31T00:28:08;14.70;99.90
5960;DHT22;3006;50.956;7.002;2022-10-31T00:30:37;14.70;99.90
5960;DHT22;3006;50.956;7.002;2022-10-31T00:33:05;14.70;99.90
5960;DHT22;3006;50.956;7.002;2022-10-31T00:35:33;14.70;99.90
5960;DHT22;3006;50.956;7.002;2022-10-31T00:38:02;14.70;99.90
5960;DHT22;3006;50.956;7.002;2022-10-31T00:40:30;14.70;99.90
5960;DHT22;3006;50.956;7.002;2022-10-31T00:42:58;14.80;99.90
5960;DHT22;3006;50.956;7.002;2022-10-31T00:45:27;14.80;99.90
5960;DHT22;3006;50.956;7.002;2022-10-31T00:47:55;14.80;99.90
5960;DHT22;3006;50.956;7.002;2022-10-31T00:50:23;14.90;99.90
5960;DHT22;3006;50.956;7.002;2022-10-31T00:52:51;14.90;99.90
5960;DHT22;3006;50.956;7.002;2022-10-31T00:55:20;14.80;99.90
5960;DHT22;3006;50.956;7.002;2022-10-31T00:57:48;14.80;99.90
5960;DHT22;3006;50.956;7.002;2022-10-31T01:00:17;14.80;99.90
5960;DHT22;3006;50.956;7.002;2022-10-31T01:02:45;14.80;99.90
5960;DHT22;3006;50.956;7.002;2022-10-31T01:05:14;14.80;99.90
5960;DHT22;3006;50.956;7.002;2022-10-31T01:07:43;14.70;99.90
5960;DHT22;3006;50.956;7.002;2022-10-31T01:10:11;14.70;99.90
5960;DHT22;3006;50.956;7.002;2022-10-31T01:12:42;14.70;99.90
5960;DHT22;3006;50.956;7.002;2022-10-31T01:15:14;14.60;99.90
5960;DHT22;3006;50.956;7.002;2022-10-31T01:17:42;14.60;99.90
5960;DHT22;3006;50.956;7.002;2022-10-31T01:20:12;14.60;99.90
5960;DHT22;3006;50.956;7.002;2022-10-31T01:22:41;14.60;99.90
5960;DHT22;3006;50.956;7.002;2022-10-31T01:25:09;14.60;99.90
5960;DHT22;3006;50.956;7.002;2022-10-31T01:27:38;14.50;99.90
5960;DHT22;3006;50.956;7.002;2022-10-31T01:30:09;14.50;99.90
5960;DHT22;3006;50.956;7.002;2022-10-31T01:32:37;14.50;99.90
5960;DHT22;3006;50.956;7.002;2022-10-31T01:35:06;14.50;99.90
5960;DHT22;3006;50.956;7.002;2022-10-31T01:37:34;14.50;99.90
5960;DHT22;3006;50.956;7.002;2022-10-31T01:40:02;14.50;99.90
5960;DHT22;3006;50.956;7.002;2022-10-31T01:42:30;14.50;99.90
5960;DHT22;3006;50.956;7.002;2022-10-31T01:45:00;14.50;99.90
5960;DHT22;3006;50.956;7.002;2022-10-31T01:47:41;14.50;99.90
5960;DHT22;3006;50.956;7.002;2022-10-31T01:50:15;14.60;99.90
5960;DHT22;3006;50.956;7.002;2022-10-31T01:52:47;14.60;99.90
5960;DHT22;3006;50.956;7.002;2022-10-31T01:55:19;14.50;99.90
5960;DHT22;3006;50.956;7.002;2022-10-31T01:57:55;14.50;99.90
5960;DHT22;3006;50.956;7.002;2022-10-31T02:00:25;14.50;99.90
5960;DHT22;3006;50.956;7.002;2022-10-31T02:02:54;14.50;99.90
5960;DHT22;3006;50.956;7.002;2022-10-31T02:05:25;14.40;99.90
5960;DHT22;3006;50.956;7.002;2022-10-31T02:07:58;14.50;99.90
5960;DHT22;3006;50.956;7.002;2022-10-31T02:10:29;14.40;99.90
5960;DHT22;3006;50.956;7.002;2022-10-31T02:13:01;14.40;99.90
5960;DHT22;3006;50.956;7.002;2022-10-31T02:15:30;14.40;99.90
5960;DHT22;3006;50.956;7.002;2022-10-31T02:18:01;14.30;99.90
5960;DHT22;3006;50.956;7.002;2022-10-31T02:20:32;14.30;99.90
5960;DHT22;3006;50.956;7.002;2022-10-31T02:26:24;14.20;99.90
5960;DHT22;3006;50.956;7.002;2022-10-31T02:32:10;14.30;99.90
5960;DHT22;3006;50.956;7.002;2022-10-31T02:34:46;14.30;99.90
5960;DHT22;3006;50.956;7.002;2022-10-31T02:37:23;14.30;99.90
5960;DHT22;3006;50.956;7.002;2022-10-31T02:39:58;14.20;99.90
5960;DHT22;3006;50.956;7.002;2022-10-31T02:42:50;14.00;99.90
5960;DHT22;3006;50.956;7.002;2022-10-31T02:45:24;14.00;99.90
5960;DHT22;3006;50.956;7.002;2022-10-31T02:47:59;13.90;99.90
5960;DHT22;3006;50.956;7.002;2022-10-31T02:50:31;14.00;99.90
5960;DHT22;3006;50.956;7.002;2022-10-31T02:53:02;14.00;99.90
5960;DHT22;3006;50.956;7.002;2022-10-31T02:55:47;14.10;99.90
5960;DHT22;3006;50.956;7.002;2022-10-31T02:58:20;14.10;99.90
5960;DHT22;3006;50.956;7.002;2022-10-31T03:01:07;14.20;99.90
5960;DHT22;3006;50.956;7.002;2022-10-31T03:03:48;14.20;99.90
5960;DHT22;3006;50.956;7.002;2022-10-31T03:06:22;14.20;99.90
5960;DHT22;3006;50.956;7.002;2022-10-31T03:08:58;14.20;99.90
5960;DHT22;3006;50.956;7.002;2022-10-31T03:11:31;14.30;99.90
5960;DHT22;3006;50.956;7.002;2022-10-31T03:14:05;14.30;99.90
5960;DHT22;3006;50.956;7.002;2022-10-31T03:16:41;14.30;99.90
5960;DHT22;3006;50.956;7.002;2022-10-31T03:19:16;14.40;99.90
5960;DHT22;3006;50.956;7.002;2022-10-31T03:21:47;14.40;99.90
5960;DHT22;3006;50.956;7.002;2022-10-31T03:24:16;14.40;99.90
5960;DHT22;3006;50.956;7.002;2022-10-31T03:26:48;14.40;99.90
5960;DHT22;3006;50.956;7.002;2022-10-31T03:29:21;14.40;99.90
5960;DHT22;3006;50.956;7.002;2022-10-31T03:31:53;14.40;99.90
5960;DHT22;3006;50.956;7.002;2022-10-31T03:34:25;14.40;99.90
5960;DHT22;3006;50.956;7.002;2022-10-31T03:36:57;14.30;99.90
5960;DHT22;3006;50.956;7.002;2022-10-31T03:39:28;14.20;99.90
5960;DHT22;3006;50.956;7.002;2022-10-31T03:41:58;14.20;99.90
5960;DHT22;3006;50.956;7.002;2022-10-31T03:44:29;14.30;99.90
5960;DHT22;3006;50.956;7.002;2022-10-31T03:47:02;14.20;99.90
5960;DHT22;3006;50.956;7.002;2022-10-31T03:49:33;14.20;99.90
5960;DHT22;3006;50.956;7.002;2022-10-31T03:52:07;14.20;99.90
5960;DHT22;3006;50.956;7.002;2022-10-31T03:54:41;14.10;99.90
5960;DHT22;3006;50.956;7.002;2022-10-31T03:57:16;14.10;99.90
5960;DHT22;3006;50.956;7.002;2022-10-31T03:59:50;14.10;99.90
5960;DHT22;3006;50.956;7.002;2022-10-31T04:02:21;14.10;99.90
5960;DHT22;3006;50.956;7.002;2022-10-31T04:04:52;14.10;99.90
5960;DHT22;3006;50.956;7.002;2022-10-31T04:07:21;14.10;99.90
5960;DHT22;3006;50.956;7.002;2022-10-31T04:09:52;14.10;99.90
5960;DHT22;3006;50.956;7.002;2022-10-31T04:12:23;14.10;99.90
5960;DHT22;3006;50.956;7.002;2022-10-31T04:15:10;14.00;99.90
5960;DHT22;3006;50.956;7.002;2022-10-31T04:17:42;14.10;99.90
5960;DHT22;3006;50.956;7.002;2022-10-31T04:20:17;14.10;99.90
5960;DHT22;3006;50.956;7.002;2022-10-31T04:22:45;14.20;99.90
5960;DHT22;3006;50.956;7.002;2022-10-31T04:25:13;14.20;99.90
5960;DHT22;3006;50.956;7.002;2022-10-31T04:27:41;14.20;99.90
5960;DHT22;3006;50.956;7.002;2022-10-31T04:30:10;14.10;99.90
5960;DHT22;3006;50.956;7.002;2022-10-31T04:32:41;14.00;99.90
5960;DHT22;3006;50.956;7.002;2022-10-31T04:35:09;14.00;99.90
5960;DHT22;3006;50.956;7.002;2022-10-31T04:37:38;14.00;99.90
5960;DHT22;3006;50.956;7.002;2022-10-31T04:40:07;14.00;99.90
5960;DHT22;3006;50.956;7.002;2022-10-31T04:43:07;14.00;99.90
5960;DHT22;3006;50.956;7.002;2022-10-31T04:45:37;14.00;99.90
5960;DHT22;3006;50.956;7.002;2022-10-31T04:48:05;14.00;99.90
5960;DHT22;3006;50.956;7.002;2022-10-31T04:50:35;13.90;99.90
5960;DHT22;3006;50.956;7.002;2022-10-31T04:53:04;13.90;99.90
5960;DHT22;3006;50.956;7.002;2022-10-31T04:55:39;13.80;99.90
5960;DHT22;3006;50.956;7.002;2022-10-31T04:58:17;13.80;99.90
5960;DHT22;3006;50.956;7.002;2022-10-31T05:00:46;13.80;99.90
5960;DHT22;3006;50.956;7.002;2022-10-31T05:03:14;13.80;99.90
5960;DHT22;3006;50.956;7.002;2022-10-31T05:05:42;13.80;99.90
5960;DHT22;3006;50.956;7.002;2022-10-31T05:08:13;13.80;99.90
5960;DHT22;3006;50.956;7.002;2022-10-31T05:10:42;13.90;99.90
5960;DHT22;3006;50.956;7.002;2022-10-31T05:13:10;13.80;99.90
5960;DHT22;3006;50.956;7.002;2022-10-31T05:16:16;13.70;99.90
5960;DHT22;3006;50.956;7.002;2022-10-31T05:19:03;13.70;99.90
5960;DHT22;3006;50.956;7.002;2022-10-31T05:21:49;13.70;99.90
5960;DHT22;3006;50.956;7.002;2022-10-31T05:24:20;13.80;99.90
5960;DHT22;3006;50.956;7.002;2022-10-31T05:26:49;13.70;99.90
5960;DHT22;3006;50.956;7.002;2022-10-31T05:29:17;13.80;99.90
5960;DHT22;3006;50.956;7.002;2022-10-31T05:31:45;13.80;99.90
5960;DHT22;3006;50.956;7.002;2022-10-31T05:34:33;13.80;99.90
5960;DHT22;3006;50.956;7.002;2022-10-31T05:37:15;13.80;99.90
5960;DHT22;3006;50.956;7.002;2022-10-31T05:39:44;13.80;99.90
5960;DHT22;3006;50.956;7.002;2022-10-31T05:42:15;13.80;99.90
5960;DHT22;3006;50.956;7.002;2022-10-31T05:44:43;13.70;99.90
5960;DHT22;3006;50.956;7.002;2022-10-31T05:47:23;13.70;99.90
5960;DHT22;3006;50.956;7.002;2022-10-31T05:50:31;13.70;99.90
5960;DHT22;3006;50.956;7.002;2022-10-31T05:53:08;13.70;99.90
5960;DHT22;3006;50.956;7.002;2022-10-31T05:55:38;13.70;99.90
5960;DHT22;3006;50.956;7.002;2022-10-31T05:58:10;13.70;99.90
5960;DHT22;3006;50.956;7.002;2022-10-31T06:00:42;13.60;99.90
5960;DHT22;3006;50.956;7.002;2022-10-31T06:03:11;13.50;99.90
5960;DHT22;3006;50.956;7.002;2022-10-31T06:05:45;13.50;99.90
5960;DHT22;3006;50.956;7.002;2022-10-31T06:08:20;13.50;99.90
5960;DHT22;3006;50.956;7.002;2022-10-31T06:10:50;13.50;99.90
5960;DHT22;3006;50.956;7.002;2022-10-31T06:13:29;13.50;99.90
5960;DHT22;3006;50.956;7.002;2022-10-31T06:16:09;13.50;99.90
5960;DHT22;3006;50.956;7.002;2022-10-31T06:18:38;13.50;99.90
5960;DHT22;3006;50.956;7.002;2022-10-31T06:21:06;13.40;99.90
5960;DHT22;3006;50.956;7.002;2022-10-31T06:23:36;13.40;99.90
5960;DHT22;3006;50.956;7.002;2022-10-31T06:26:32;13.30;99.90
5960;DHT22;3006;50.956;7.002;2022-10-31T06:29:01;13.30;99.90
5960;DHT22;3006;50.956;7.002;2022-10-31T06:31:57;13.30;99.90
5960;DHT22;3006;50.956;7.002;2022-10-31T06:34:25;13.30;99.90
5960;DHT22;3006;50.956;7.002;2022-10-31T06:36:53;13.30;99.90
5960;DHT22;3006;50.956;7.002;2022-10-31T06:39:24;13.30;99.90
5960;DHT22;3006;50.956;7.002;2022-10-31T06:41:54;13.30;99.90
5960;DHT22;3006;50.956;7.002;2022-10-31T06:44:23;13.30;99.90
5960;DHT22;3006;50.956;7.002;2022-10-31T06:46:54;13.30;99.90
5960;DHT22;3006;50.956;7.002;2022-10-31T06:49:57;13.30;99.90
5960;DHT22;3006;50.956;7.002;2022-10-31T06:52:26;13.40;99.90
5960;DHT22;3006;50.956;7.002;2022-10-31T06:54:55;13.40;99.90
5960;DHT22;3006;50.956;7.002;2022-10-31T06:57:24;13.40;99.90
5960;DHT22;3006;50.956;7.002;2022-10-31T06:59:52;13.50;99.90
5960;DHT22;3006;50.956;7.002;2022-10-31T07:02:54;13.50;99.90
5960;DHT22;3006;50.956;7.002;2022-10-31T07:05:23;13.60;99.90
5960;DHT22;3006;50.956;7.002;2022-10-31T07:07:52;13.60;99.90
5960;DHT22;3006;50.956;7.002;2022-10-31T07:10:21;13.60;99.90
5960;DHT22;3006;50.956;7.002;2022-10-31T07:12:59;13.70;99.90
5960;DHT22;3006;50.956;7.002;2022-10-31T07:15:35;13.70;99.90
5960;DHT22;3006;50.956;7.002;2022-10-31T07:18:05;13.70;99.90
5960;DHT22;3006;50.956;7.002;2022-10-31T07:20:34;13.80;99.90
5960;DHT22;3006;50.956;7.002;2022-10-31T07:23:03;13.90;99.90
5960;DHT22;3006;50.956;7.002;2022-10-31T07:25:32;14.00;99.90
5960;DHT22;3006;50.956;7.002;2022-10-31T07:28:09;14.00;99.90
5960;DHT22;3006;50.956;7.002;2022-10-31T07:30:39;14.10;99.90
5960;DHT22;3006;50.956;7.002;2022-10-31T07:33:08;14.20;99.90
5960;DHT22;3006;50.956;7.002;2022-10-31T07:35:55;14.20;99.90
5960;DHT22;3006;50.956;7.002;2022-10-31T07:38:28;14.20;99.90
5960;DHT22;3006;50.956;7.002;2022-10-31T07:41:02;14.20;99.90
5960;DHT22;3006;50.956;7.002;2022-10-31T07:43:33;14.20;99.90
5960;DHT22;3006;50.956;7.002;2022-10-31T07:46:07;14.10;99.90
5960;DHT22;3006;50.956;7.002;2022-10-31T07:48:54;14.20;99.90
5960;DHT22;3006;50.956;7.002;2022-10-31T07:51:40;14.20;99.90
5960;DHT22;3006;50.956;7.002;2022-10-31T07:54:30;14.20;99.90
5960;DHT22;3006;50.956;7.002;2022-10-31T07:56:58;14.30;99.90
5960;DHT22;3006;50.956;7.002;2022-10-31T07:59:29;14.30;99.90
5960;DHT22;3006;50.956;7.002;2022-10-31T08:01:57;14.30;99.90
5960;DHT22;3006;50.956;7.002;2022-10-31T08:04:44;14.40;99.90
5960;DHT22;3006;50.956;7.002;2022-10-31T08:07:36;14.40;99.90
5960;DHT22;3006;50.956;7.002;2022-10-31T08:10:07;14.40;99.90
5960;DHT22;3006;50.956;7.002;2022-10-31T08:12:35;14.50;99.90
5960;DHT22;3006;50.956;7.002;2022-10-31T08:15:08;14.50;99.90
5960;DHT22;3006;50.956;7.002;2022-10-31T08:17:37;14.50;99.90
5960;DHT22;3006;50.956;7.002;2022-10-31T08:20:07;14.50;99.90
5960;DHT22;3006;50.956;7.002;2022-10-31T08:22:42;14.50;99.90
5960;DHT22;3006;50.956;7.002;2022-10-31T08:25:10;14.50;99.90
5960;DHT22;3006;50.956;7.002;2022-10-31T08:27:38;14.60;99.90
5960;DHT22;3006;50.956;7.002;2022-10-31T08:30:16;14.50;99.90
5960;DHT22;3006;50.956;7.002;2022-10-31T08:32:59;14.50;99.90
5960;DHT22;3006;50.956;7.002;2022-10-31T08:35:46;14.50;99.90
5960;DHT22;3006;50.956;7.002;2022-10-31T08:38:35;14.60;99.90
5960;DHT22;3006;50.956;7.002;2022-10-31T08:41:03;14.60;99.90
5960;DHT22;3006;50.956;7.002;2022-10-31T08:43:31;14.70;99.90
5960;DHT22;3006;50.956;7.002;2022-10-31T08:46:01;14.60;99.90
5960;DHT22;3006;50.956;7.002;2022-10-31T08:48:29;14.70;99.90
5960;DHT22;3006;50.956;7.002;2022-10-31T08:51:00;14.70;99.90
5960;DHT22;3006;50.956;7.002;2022-10-31T08:53:29;14.80;99.90
5960;DHT22;3006;50.956;7.002;2022-10-31T08:56:15;14.90;99.90
5960;DHT22;3006;50.956;7.002;2022-10-31T08:58:45;14.90;99.90
5960;DHT22;3006;50.956;7.002;2022-10-31T09:01:15;14.90;99.90
5960;DHT22;3006;50.956;7.002;2022-10-31T09:03:43;15.00;99.90
5960;DHT22;3006;50.956;7.002;2022-10-31T09:06:12;15.00;99.90
5960;DHT22;3006;50.956;7.002;2022-10-31T09:08:40;15.00;99.90
5960;DHT22;3006;50.956;7.002;2022-10-31T09:11:08;15.10;99.90
5960;DHT22;3006;50.956;7.002;2022-10-31T09:14:08;15.10;99.90
5960;DHT22;3006;50.956;7.002;2022-10-31T09:17:16;15.10;99.90
5960;DHT22;3006;50.956;7.002;2022-10-31T09:20:07;15.20;99.90
5960;DHT22;3006;50.956;7.002;2022-10-31T09:22:35;15.20;99.90
5960;DHT22;3006;50.956;7.002;2022-10-31T09:25:04;15.20;99.90
5960;DHT22;3006;50.956;7.002;2022-10-31T09:27:32;15.20;99.90
5960;DHT22;3006;50.956;7.002;2022-10-31T09:30:00;15.30;99.90
5960;DHT22;3006;50.956;7.002;2022-10-31T09:32:30;15.30;99.90
5960;DHT22;3006;50.956;7.002;2022-10-31T09:34:58;15.40;99.90
5960;DHT22;3006;50.956;7.002;2022-10-31T09:37:27;15.40;99.90
5960;DHT22;3006;50.956;7.002;2022-10-31T09:39:55;15.40;99.90
5960;DHT22;3006;50.956;7.002;2022-10-31T09:42:52;15.40;99.90
5960;DHT22;3006;50.956;7.002;2022-10-31T09:45:30;15.40;99.90
5960;DHT22;3006;50.956;7.002;2022-10-31T09:48:18;15.50;99.90
5960;DHT22;3006;50.956;7.002;2022-10-31T09:51:03;15.60;99.90
5960;DHT22;3006;50.956;7.002;2022-10-31T09:53:47;15.70;99.90
5960;DHT22;3006;50.956;7.002;2022-10-31T09:56:21;15.70;99.90
5960;DHT22;3006;50.956;7.002;2022-10-31T09:58:53;15.80;99.90
5960;DHT22;3006;50.956;7.002;2022-10-31T10:01:41;16.00;99.90
5960;DHT22;3006;50.956;7.002;2022-10-31T10:04:28;16.00;99.90
5960;DHT22;3006;50.956;7.002;2022-10-31T10:07:11;16.10;99.90
5960;DHT22;3006;50.956;7.002;2022-10-31T10:09:43;16.20;99.90
5960;DHT22;3006;50.956;7.002;2022-10-31T10:13:05;16.30;99.90
5960;DHT22;3006;50.956;7.002;2022-10-31T10:15:48;16.40;99.90
5960;DHT22;3006;50.956;7.002;2022-10-31T10:18:31;16.50;99.90
5960;DHT22;3006;50.956;7.002;2022-10-31T10:21:21;16.60;99.90
5960;DHT22;3006;50.956;7.002;2022-10-31T10:24:05;16.60;99.90
5960;DHT22;3006;50.956;7.002;2022-10-31T10:26:38;16.80;99.90
5960;DHT22;3006;50.956;7.002;2022-10-31T10:29:17;17.10;99.90
5960;DHT22;3006;50.956;7.002;2022-10-31T10:31:49;17.30;99.90
5960;DHT22;3006;50.956;7.002;2022-10-31T10:34:22;17.40;99.90
5960;DHT22;3006;50.956;7.002;2022-10-31T10:36:56;17.60;99.90
5960;DHT22;3006;50.956;7.002;2022-10-31T10:39:27;17.70;99.90
5960;DHT22;3006;50.956;7.002;2022-10-31T10:41:59;17.80;99.90
5960;DHT22;3006;50.956;7.002;2022-10-31T10:44:47;17.80;99.90
5960;DHT22;3006;50.956;7.002;2022-10-31T10:47:38;17.90;99.90
5960;DHT22;3006;50.956;7.002;2022-10-31T10:50:12;17.90;99.90
5960;DHT22;3006;50.956;7.002;2022-10-31T10:52:48;18.00;99.90
5960;DHT22;3006;50.956;7.002;2022-10-31T10:55:27;18.10;99.90
5960;DHT22;3006;50.956;7.002;2022-10-31T10:58:00;18.10;99.90
5960;DHT22;3006;50.956;7.002;2022-10-31T11:00:32;18.10;99.90
5960;DHT22;3006;50.956;7.002;2022-10-31T11:03:02;18.10;99.90
5960;DHT22;3006;50.956;7.002;2022-10-31T11:05:36;18.10;99.90
5960;DHT22;3006;50.956;7.002;2022-10-31T11:08:06;18.10;99.90
5960;DHT22;3006;50.956;7.002;2022-10-31T11:10:35;18.10;99.90
5960;DHT22;3006;50.956;7.002;2022-10-31T11:13:16;18.20;99.90
5960;DHT22;3006;50.956;7.002;2022-10-31T11:16:00;18.20;99.90
5960;DHT22;3006;50.956;7.002;2022-10-31T11:18:32;18.30;99.90
5960;DHT22;3006;50.956;7.002;2022-10-31T11:21:02;18.40;99.90
5960;DHT22;3006;50.956;7.002;2022-10-31T11:23:33;18.30;99.90
5960;DHT22;3006;50.956;7.002;2022-10-31T11:26:03;18.30;99.90
5960;DHT22;3006;50.956;7.002;2022-10-31T11:28:32;18.30;99.90
5960;DHT22;3006;50.956;7.002;2022-10-31T11:31:07;18.30;99.90
5960;DHT22;3006;50.956;7.002;2022-10-31T11:33:37;18.20;99.90
5960;DHT22;3006;50.956;7.002;2022-10-31T11:36:15;18.20;99.90
5960;DHT22;3006;50.956;7.002;2022-10-31T11:38:45;18.20;99.90
5960;DHT22;3006;50.956;7.002;2022-10-31T11:41:15;18.20;99.90
5960;DHT22;3006;50.956;7.002;2022-10-31T11:43:50;18.20;99.90
5960;DHT22;3006;50.956;7.002;2022-10-31T11:46:23;18.20;99.90
5960;DHT22;3006;50.956;7.002;2022-10-31T11:48:54;18.20;99.90
5960;DHT22;3006;50.956;7.002;2022-10-31T11:51:24;18.20;99.90
5960;DHT22;3006;50.956;7.002;2022-10-31T11:53:56;18.30;99.90
5960;DHT22;3006;50.956;7.002;2022-10-31T11:56:38;18.40;99.90
5960;DHT22;3006;50.956;7.002;2022-10-31T11:59:17;18.50;99.90
5960;DHT22;3006;50.956;7.002;2022-10-31T12:01:50;18.50;99.90
5960;DHT22;3006;50.956;7.002;2022-10-31T12:04:18;18.70;99.90
5960;DHT22;3006;50.956;7.002;2022-10-31T12:06:51;18.70;99.90
5960;DHT22;3006;50.956;7.002;2022-10-31T12:09:23;18.80;99.90
5960;DHT22;3006;50.956;7.002;2022-10-31T12:15:02;18.90;99.90
5960;DHT22;3006;50.956;7.002;2022-10-31T12:17:37;19.00;99.90
5960;DHT22;3006;50.956;7.002;2022-10-31T12:31:36;19.10;99.90
5960;DHT22;3006;50.956;7.002;2022-10-31T12:37:13;19.10;99.90
5960;DHT22;3006;50.956;7.002;2022-10-31T12:39:54;19.20;99.90
5960;DHT22;3006;50.956;7.002;2022-10-31T12:42:41;19.20;99.90
5960;DHT22;3006;50.956;7.002;2022-10-31T12:45:28;19.20;99.90
5960;DHT22;3006;50.956;7.002;2022-10-31T12:48:23;19.20;99.90
5960;DHT22;3006;50.956;7.002;2022-10-31T12:51:00;19.30;99.90
5960;DHT22;3006;50.956;7.002;2022-10-31T12:53:39;19.40;99.90
5960;DHT22;3006;50.956;7.002;2022-10-31T12:56:20;19.50;99.90
5960;DHT22;3006;50.956;7.002;2022-10-31T12:58:55;19.50;99.90
5960;DHT22;3006;50.956;7.002;2022-10-31T13:01:28;19.50;99.90
5960;DHT22;3006;50.956;7.002;2022-10-31T13:04:02;19.50;99.90
5960;DHT22;3006;50.956;7.002;2022-10-31T13:06:35;19.40;99.90
5960;DHT22;3006;50.956;7.002;2022-10-31T13:09:13;19.40;99.90
5960;DHT22;3006;50.956;7.002;2022-10-31T13:11:46;19.40;99.90
5960;DHT22;3006;50.956;7.002;2022-10-31T13:14:20;19.30;99.90
5960;DHT22;3006;50.956;7.002;2022-10-31T13:16:51;19.30;99.90
5960;DHT22;3006;50.956;7.002;2022-10-31T13:19:25;19.30;99.90
5960;DHT22;3006;50.956;7.002;2022-10-31T13:21:59;19.30;99.90
5960;DHT22;3006;50.956;7.002;2022-10-31T13:24:33;19.30;99.90
5960;DHT22;3006;50.956;7.002;2022-10-31T13:27:09;19.30;99.90
5960;DHT22;3006;50.956;7.002;2022-10-31T13:29:42;19.40;99.90
5960;DHT22;3006;50.956;7.002;2022-10-31T13:32:10;19.40;99.90
5960;DHT22;3006;50.956;7.002;2022-10-31T13:34:42;19.40;99.90
5960;DHT22;3006;50.956;7.002;2022-10-31T13:37:25;19.40;99.90
5960;DHT22;3006;50.956;7.002;2022-10-31T13:40:10;19.40;99.90
5960;DHT22;3006;50.956;7.002;2022-10-31T13:42:55;19.50;99.90
5960;DHT22;3006;50.956;7.002;2022-10-31T13:45:26;19.50;99.90
5960;DHT22;3006;50.956;7.002;2022-10-31T13:47:59;19.40;99.90
5960;DHT22;3006;50.956;7.002;2022-10-31T13:50:31;19.40;99.90
5960;DHT22;3006;50.956;7.002;2022-10-31T13:53:19;19.40;99.90
5960;DHT22;3006;50.956;7.002;2022-10-31T13:55:49;19.30;99.90
5960;DHT22;3006;50.956;7.002;2022-10-31T13:58:24;19.30;99.90
5960;DHT22;3006;50.956;7.002;2022-10-31T14:01:15;19.30;99.90
5960;DHT22;3006;50.956;7.002;2022-10-31T14:03:56;19.30;99.90
5960;DHT22;3006;50.956;7.002;2022-10-31T14:06:51;19.20;99.90
5960;DHT22;3006;50.956;7.002;2022-10-31T14:09:29;19.20;99.90
5960;DHT22;3006;50.956;7.002;2022-10-31T14:12:02;19.20;99.90
5960;DHT22;3006;50.956;7.002;2022-10-31T14:14:42;19.20;99.90
5960;DHT22;3006;50.956;7.002;2022-10-31T14:17:18;19.20;99.90
5960;DHT22;3006;50.956;7.002;2022-10-31T14:20:02;19.20;99.90
5960;DHT22;3006;50.956;7.002;2022-10-31T14:22:32;19.20;99.90
5960;DHT22;3006;50.956;7.002;2022-10-31T14:25:26;19.20;99.90
5960;DHT22;3006;50.956;7.002;2022-10-31T14:27:54;19.20;99.90
5960;DHT22;3006;50.956;7.002;2022-10-31T14:30:24;19.20;99.90
5960;DHT22;3006;50.956;7.002;2022-10-31T14:32:56;19.20;99.90
5960;DHT22;3006;50.956;7.002;2022-10-31T14:35:30;19.20;99.90
5960;DHT22;3006;50.956;7.002;2022-10-31T14:38:11;19.20;99.90
5960;DHT22;3006;50.956;7.002;2022-10-31T14:40:56;19.10;99.90
5960;DHT22;3006;50.956;7.002;2022-10-31T14:43:43;19.10;99.90
5960;DHT22;3006;50.956;7.002;2022-10-31T14:46:21;19.10;99.90
5960;DHT22;3006;50.956;7.002;2022-10-31T14:49:07;19.10;99.90
5960;DHT22;3006;50.956;7.002;2022-10-31T14:51:40;19.20;99.90
5960;DHT22;3006;50.956;7.002;2022-10-31T14:54:15;19.10;99.90
5960;DHT22;3006;50.956;7.002;2022-10-31T14:56:49;19.20;99.90
5960;DHT22;3006;50.956;7.002;2022-10-31T14:59:22;19.20;99.90
5960;DHT22;3006;50.956;7.002;2022-10-31T15:01:56;19.20;99.90
5960;DHT22;3006;50.956;7.002;2022-10-31T15:04:27;19.20;99.90
5960;DHT22;3006;50.956;7.002;2022-10-31T15:07:00;19.20;99.90
5960;DHT22;3006;50.956;7.002;2022-10-31T15:09:35;19.20;99.90
5960;DHT22;3006;50.956;7.002;2022-10-31T15:12:22;19.20;99.90
5960;DHT22;3006;50.956;7.002;2022-10-31T15:14:51;19.10;99.90
5960;DHT22;3006;50.956;7.002;2022-10-31T15:17:20;19.10;99.90
5960;DHT22;3006;50.956;7.002;2022-10-31T15:19:48;19.10;99.90
5960;DHT22;3006;50.956;7.002;2022-10-31T15:22:18;19.10;99.90
5960;DHT22;3006;50.956;7.002;2022-10-31T15:24:48;19.10;99.90
5960;DHT22;3006;50.956;7.002;2022-10-31T15:27:23;19.00;99.90
5960;DHT22;3006;50.956;7.002;2022-10-31T15:29:53;19.00;99.90
5960;DHT22;3006;50.956;7.002;2022-10-31T15:32:22;19.00;99.90
5960;DHT22;3006;50.956;7.002;2022-10-31T15:34:52;19.00;99.90
5960;DHT22;3006;50.956;7.002;2022-10-31T15:37:21;18.90;99.90
5960;DHT22;3006;50.956;7.002;2022-10-31T15:39:53;18.90;99.90
5960;DHT22;3006;50.956;7.002;2022-10-31T15:42:22;18.90;99.90
5960;DHT22;3006;50.956;7.002;2022-10-31T15:44:56;18.80;99.90
5960;DHT22;3006;50.956;7.002;2022-10-31T15:47:26;18.80;99.90
5960;DHT22;3006;50.956;7.002;2022-10-31T15:49:57;18.80;99.90
5960;DHT22;3006;50.956;7.002;2022-10-31T15:52:29;18.70;99.90
5960;DHT22;3006;50.956;7.002;2022-10-31T15:55:02;18.70;99.90
5960;DHT22;3006;50.956;7.002;2022-10-31T15:57:30;18.70;99.90
5960;DHT22;3006;50.956;7.002;2022-10-31T15:59:59;18.70;99.90
5960;DHT22;3006;50.956;7.002;2022-10-31T16:02:27;18.60;99.90
5960;DHT22;3006;50.956;7.002;2022-10-31T16:04:57;18.60;99.90
5960;DHT22;3006;50.956;7.002;2022-10-31T16:07:25;18.60;99.90
5960;DHT22;3006;50.956;7.002;2022-10-31T16:09:56;18.50;99.90
5960;DHT22;3006;50.956;7.002;2022-10-31T16:12:31;18.50;99.90
5960;DHT22;3006;50.956;7.002;2022-10-31T16:15:00;18.50;99.90
5960;DHT22;3006;50.956;7.002;2022-10-31T16:17:28;18.40;99.90
5960;DHT22;3006;50.956;7.002;2022-10-31T16:19:58;18.40;99.90
5960;DHT22;3006;50.956;7.002;2022-10-31T16:22:29;18.30;99.90
5960;DHT22;3006;50.956;7.002;2022-10-31T16:25:01;18.30;99.90
5960;DHT22;3006;50.956;7.002;2022-10-31T16:27:33;18.20;99.90
5960;DHT22;3006;50.956;7.002;2022-10-31T16:32:57;18.20;99.90
5960;DHT22;3006;50.956;7.002;2022-10-31T16:35:31;18.10;99.90
5960;DHT22;3006;50.956;7.002;2022-10-31T16:37:59;18.10;99.90
5960;DHT22;3006;50.956;7.002;2022-10-31T16:40:28;18.10;99.90
5960;DHT22;3006;50.956;7.002;2022-10-31T16:42:59;18.00;99.90
5960;DHT22;3006;50.956;7.002;2022-10-31T16:45:30;18.00;99.90
5960;DHT22;3006;50.956;7.002;2022-10-31T16:48:02;17.90;99.90
5960;DHT22;3006;50.956;7.002;2022-10-31T16:50:31;17.90;99.90
5960;DHT22;3006;50.956;7.002;2022-10-31T16:52:59;17.90;99.90
5960;DHT22;3006;50.956;7.002;2022-10-31T16:55:43;17.90;99.90
5960;DHT22;3006;50.956;7.002;2022-10-31T16:58:21;17.90;99.90
5960;DHT22;3006;50.956;7.002;2022-10-31T17:00:49;17.80;99.90
5960;DHT22;3006;50.956;7.002;2022-10-31T17:03:17;17.80;99.90
5960;DHT22;3006;50.956;7.002;2022-10-31T17:05:46;17.90;99.90
5960;DHT22;3006;50.956;7.002;2022-10-31T17:08:14;17.80;99.90
5960;DHT22;3006;50.956;7.002;2022-10-31T17:10:43;17.90;99.90
5960;DHT22;3006;50.956;7.002;2022-10-31T17:13:18;17.90;99.90